EGW114 EDDL-EGLL
Flight info
| Callsign | EGW114 |
|---|---|
| Flight time | N/A |
| Altitude | 18000 |
| Route | NETEX4Z NETEX Z282 DIBIR L179 ROMIN/N0450F320 L179 SASKI L608 LOGAN |
| Aircraft | A21N/M-SDE2E3FGHIRWXY/LB1 |
Departure
| Time | N/A |
|---|---|
| Airport | Düsseldorf Airport (EDDL) |
Arrival
| Time | 2026-05-08 00:25 |
|---|---|
| Airport | London Heathrow Airport (EGLL) |
| Time | Latitude | Longitude | Altitude | Speed | Heading |
|---|---|---|---|---|---|
| 2026-05-07 23:33 | 51.31558 | 6.22800 | 18114 ft | 399 kts | 232° |
| 2026-05-07 23:33 | 51.30020 | 6.19112 | 18109 ft | 398 kts | 242° |
| 2026-05-07 23:33 | 51.28686 | 6.15226 | 18114 ft | 398 kts | 241° |
| 2026-05-07 23:33 | 51.27343 | 6.11359 | 18109 ft | 398 kts | 242° |
| 2026-05-07 23:34 | 51.26033 | 6.07453 | 18108 ft | 398 kts | 243° |
| 2026-05-07 23:34 | 51.24762 | 6.03515 | 18108 ft | 398 kts | 243° |
| 2026-05-07 23:34 | 51.23568 | 5.99579 | 18107 ft | 398 kts | 248° |
| 2026-05-07 23:34 | 51.22740 | 5.95368 | 18109 ft | 398 kts | 258° |
| 2026-05-07 23:35 | 51.22352 | 5.90987 | 18111 ft | 398 kts | 266° |
| 2026-05-07 23:35 | 51.22260 | 5.86576 | 18110 ft | 398 kts | 268° |
| 2026-05-07 23:35 | 51.22161 | 5.82167 | 18106 ft | 398 kts | 268° |
| 2026-05-07 23:35 | 51.22051 | 5.77752 | 18109 ft | 398 kts | 268° |
| 2026-05-07 23:36 | 51.21936 | 5.73387 | 18110 ft | 398 kts | 267° |
| 2026-05-07 23:36 | 51.21820 | 5.68980 | 18112 ft | 398 kts | 267° |
| 2026-05-07 23:36 | 51.21707 | 5.64570 | 18112 ft | 398 kts | 268° |
| 2026-05-07 23:36 | 51.21598 | 5.60158 | 18110 ft | 398 kts | 268° |
| 2026-05-07 23:37 | 51.21481 | 5.55743 | 18109 ft | 398 kts | 267° |
| 2026-05-07 23:37 | 51.21344 | 5.51305 | 18464 ft | 401 kts | 266° |
| 2026-05-07 23:37 | 51.21192 | 5.46847 | 18923 ft | 403 kts | 266° |
| 2026-05-07 23:37 | 51.21035 | 5.42440 | 19366 ft | 404 kts | 266° |
| 2026-05-07 23:38 | 51.20871 | 5.37940 | 19807 ft | 406 kts | 266° |
| 2026-05-07 23:38 | 51.20708 | 5.33423 | 20263 ft | 408 kts | 266° |
| 2026-05-07 23:38 | 51.20548 | 5.28892 | 20705 ft | 410 kts | 266° |
| 2026-05-07 23:38 | 51.20389 | 5.24327 | 21125 ft | 412 kts | 266° |
| 2026-05-07 23:39 | 51.20227 | 5.19731 | 21536 ft | 414 kts | 266° |
| 2026-05-07 23:39 | 51.20066 | 5.15194 | 21922 ft | 416 kts | 266° |
| 2026-05-07 23:39 | 51.19902 | 5.10573 | 22297 ft | 418 kts | 266° |
| 2026-05-07 23:39 | 51.19732 | 5.05932 | 22666 ft | 420 kts | 266° |
| 2026-05-07 23:40 | 51.19560 | 5.01278 | 23029 ft | 421 kts | 266° |
| 2026-05-07 23:40 | 51.19392 | 4.96592 | 23386 ft | 423 kts | 267° |
| 2026-05-07 23:40 | 51.19245 | 4.91873 | 23740 ft | 425 kts | 267° |
| 2026-05-07 23:40 | 51.19114 | 4.87216 | 24036 ft | 427 kts | 267° |
| 2026-05-07 23:41 | 51.18986 | 4.82482 | 24332 ft | 428 kts | 267° |
| 2026-05-07 23:41 | 51.18838 | 4.77726 | 24635 ft | 430 kts | 266° |
| 2026-05-07 23:41 | 51.18668 | 4.72933 | 24858 ft | 434 kts | 266° |
| 2026-05-07 23:41 | 51.18483 | 4.68095 | 25138 ft | 435 kts | 266° |
| 2026-05-07 23:42 | 51.18298 | 4.63342 | 25485 ft | 435 kts | 266° |
| 2026-05-07 23:42 | 51.18110 | 4.58522 | 25792 ft | 437 kts | 266° |
| 2026-05-07 23:42 | 51.17920 | 4.53665 | 26084 ft | 438 kts | 266° |
| 2026-05-07 23:42 | 51.17729 | 4.48796 | 26359 ft | 440 kts | 266° |
| 2026-05-07 23:43 | 51.17540 | 4.43975 | 26617 ft | 441 kts | 266° |
| 2026-05-07 23:43 | 51.17345 | 4.39078 | 26869 ft | 443 kts | 266° |
| 2026-05-07 23:43 | 51.17145 | 4.34169 | 27115 ft | 444 kts | 266° |
| 2026-05-07 23:43 | 51.16941 | 4.29228 | 27344 ft | 446 kts | 266° |
| 2026-05-07 23:44 | 51.16749 | 4.24354 | 27563 ft | 447 kts | 267° |
| 2026-05-07 23:44 | 51.16857 | 4.19408 | 27868 ft | 446 kts | 276° |
| 2026-05-07 23:44 | 51.17442 | 4.14549 | 28180 ft | 447 kts | 284° |
| 2026-05-07 23:44 | 51.18445 | 4.09847 | 28490 ft | 446 kts | 289° |
| 2026-05-07 23:45 | 51.19502 | 4.05195 | 28797 ft | 446 kts | 288° |
| 2026-05-07 23:45 | 51.20544 | 4.00538 | 29115 ft | 445 kts | 288° |
| 2026-05-07 23:45 | 51.21575 | 3.95884 | 29425 ft | 444 kts | 288° |
| 2026-05-07 23:45 | 51.22587 | 3.91282 | 29742 ft | 443 kts | 288° |
| 2026-05-07 23:46 | 51.23605 | 3.86647 | 30053 ft | 442 kts | 288° |
| 2026-05-07 23:46 | 51.24627 | 3.82010 | 30333 ft | 441 kts | 288° |
| 2026-05-07 23:46 | 51.25651 | 3.77369 | 30599 ft | 441 kts | 288° |
| 2026-05-07 23:46 | 51.26657 | 3.72816 | 30851 ft | 440 kts | 288° |
| 2026-05-07 23:47 | 51.27681 | 3.68183 | 31103 ft | 439 kts | 288° |
| 2026-05-07 23:47 | 51.28692 | 3.63584 | 31357 ft | 438 kts | 288° |
| 2026-05-07 23:47 | 51.29699 | 3.58990 | 31609 ft | 438 kts | 288° |
| 2026-05-07 23:47 | 51.30707 | 3.54383 | 31854 ft | 437 kts | 288° |
| 2026-05-07 23:48 | 51.31698 | 3.49851 | 32051 ft | 437 kts | 288° |
| 2026-05-07 23:48 | 51.32702 | 3.45245 | 32112 ft | 437 kts | 288° |
| 2026-05-07 23:48 | 51.34692 | 3.36060 | 32102 ft | 437 kts | 288° |
| 2026-05-07 23:49 | 51.36759 | 3.26975 | 32116 ft | 437 kts | 289° |
| 2026-05-07 23:49 | 51.38958 | 3.17897 | 32105 ft | 437 kts | 290° |
| 2026-05-07 23:50 | 51.41154 | 3.08801 | 32114 ft | 437 kts | 289° |
| 2026-05-07 23:50 | 51.43303 | 2.99680 | 32106 ft | 437 kts | 289° |
| 2026-05-07 23:51 | 51.45418 | 2.90597 | 32121 ft | 437 kts | 289° |
| 2026-05-07 23:51 | 51.47550 | 2.81439 | 32112 ft | 437 kts | 289° |
| 2026-05-07 23:52 | 51.49666 | 2.72343 | 32111 ft | 437 kts | 289° |
| 2026-05-07 23:52 | 51.51781 | 2.63190 | 32111 ft | 437 kts | 289° |
| 2026-05-07 23:53 | 51.53879 | 2.54077 | 32122 ft | 437 kts | 289° |
| 2026-05-07 23:53 | 51.55985 | 2.44890 | 32120 ft | 437 kts | 288° |
| 2026-05-07 23:54 | 51.58080 | 2.35709 | 32121 ft | 437 kts | 288° |
| 2026-05-07 23:54 | 51.60162 | 2.26571 | 32119 ft | 437 kts | 288° |
| 2026-05-07 23:55 | 51.62242 | 2.17386 | 32123 ft | 437 kts | 288° |
| 2026-05-07 23:55 | 51.64314 | 2.08194 | 32129 ft | 437 kts | 288° |
| 2026-05-07 23:56 | 51.65351 | 2.03586 | 31847 ft | 436 kts | 288° |
| 2026-05-07 23:56 | 51.66384 | 1.98986 | 31252 ft | 437 kts | 288° |
| 2026-05-07 23:56 | 51.67419 | 1.94359 | 30365 ft | 440 kts | 288° |
| 2026-05-07 23:56 | 51.68444 | 1.89761 | 29376 ft | 443 kts | 288° |
| 2026-05-07 23:57 | 51.69488 | 1.85071 | 28358 ft | 445 kts | 288° |
| 2026-05-07 23:57 | 51.70538 | 1.80340 | 27426 ft | 446 kts | 288° |
| 2026-05-07 23:57 | 51.71572 | 1.75673 | 26966 ft | 437 kts | 288° |
| 2026-05-07 23:57 | 51.72247 | 1.72620 | 26564 ft | 434 kts | 288° |
| 2026-05-07 23:58 | 51.73552 | 1.66658 | 25800 ft | 427 kts | 286° |
| 2026-05-07 23:58 | 51.74054 | 1.63595 | 25416 ft | 423 kts | 280° |
| 2026-05-07 23:58 | 51.74416 | 1.58920 | 24827 ft | 417 kts | 271° |
| 2026-05-07 23:58 | 51.74323 | 1.54224 | 24178 ft | 419 kts | 263° |
| 2026-05-07 23:59 | 51.74009 | 1.49550 | 23526 ft | 418 kts | 263° |
| 2026-05-07 23:59 | 51.73705 | 1.44898 | 22859 ft | 416 kts | 263° |
| 2026-05-07 23:59 | 51.73408 | 1.40263 | 22239 ft | 412 kts | 263° |
| 2026-05-07 23:59 | 51.73114 | 1.35666 | 21619 ft | 409 kts | 263° |
| 2026-05-08 00:00 | 51.72824 | 1.31184 | 21015 ft | 405 kts | 263° |
| 2026-05-08 00:00 | 51.72527 | 1.26664 | 20410 ft | 402 kts | 263° |
| 2026-05-08 00:00 | 51.72235 | 1.22231 | 19806 ft | 399 kts | 263° |
| 2026-05-08 00:00 | 51.71940 | 1.17793 | 19218 ft | 395 kts | 263° |
| 2026-05-08 00:01 | 51.71645 | 1.13384 | 18624 ft | 392 kts | 263° |
| 2026-05-08 00:01 | 51.71350 | 1.09017 | 17982 ft | 389 kts | 263° |
| 2026-05-08 00:01 | 51.71054 | 1.04702 | 17404 ft | 386 kts | 262° |
| 2026-05-08 00:01 | 51.70761 | 1.00462 | 16829 ft | 383 kts | 262° |
| 2026-05-08 00:02 | 51.70468 | 0.96210 | 16258 ft | 379 kts | 262° |
| 2026-05-08 00:02 | 51.70176 | 0.91969 | 15488 ft | 380 kts | 262° |
| 2026-05-08 00:02 | 51.69881 | 0.87688 | 14538 ft | 386 kts | 262° |
| 2026-05-08 00:02 | 51.69581 | 0.83349 | 13595 ft | 390 kts | 262° |
| 2026-05-08 00:03 | 51.69278 | 0.79019 | 12964 ft | 384 kts | 262° |
| 2026-05-08 00:03 | 51.68979 | 0.74805 | 12282 ft | 380 kts | 262° |
| 2026-05-08 00:03 | 51.68683 | 0.70644 | 12043 ft | 364 kts | 262° |
| 2026-05-08 00:03 | 51.68401 | 0.66679 | 11917 ft | 346 kts | 262° |
| 2026-05-08 00:04 | 51.68133 | 0.62917 | 11786 ft | 330 kts | 262° |
| 2026-05-08 00:04 | 51.67875 | 0.59318 | 11654 ft | 315 kts | 262° |
| 2026-05-08 00:04 | 51.67627 | 0.55911 | 11533 ft | 302 kts | 262° |
| 2026-05-08 00:04 | 51.67389 | 0.52660 | 11333 ft | 292 kts | 262° |
| 2026-05-08 00:05 | 51.67152 | 0.49418 | 10979 ft | 288 kts | 262° |
| 2026-05-08 00:05 | 51.66918 | 0.46218 | 10568 ft | 288 kts | 263° |
| 2026-05-08 00:05 | 51.66686 | 0.43035 | 10188 ft | 285 kts | 263° |
| 2026-05-08 00:05 | 51.66453 | 0.39852 | 9805 ft | 283 kts | 263° |
| 2026-05-08 00:06 | 51.66224 | 0.36713 | 9378 ft | 281 kts | 263° |
| 2026-05-08 00:06 | 51.65997 | 0.33619 | 8952 ft | 281 kts | 263° |
| 2026-05-08 00:06 | 51.65768 | 0.30492 | 8517 ft | 280 kts | 263° |
| 2026-05-08 00:06 | 51.65536 | 0.27369 | 8106 ft | 279 kts | 263° |
| 2026-05-08 00:07 | 51.65301 | 0.24276 | 7701 ft | 278 kts | 263° |
| 2026-05-08 00:07 | 51.65069 | 0.21238 | 7544 ft | 267 kts | 263° |
| 2026-05-08 00:07 | 51.64850 | 0.18363 | 7415 ft | 257 kts | 263° |
| 2026-05-08 00:07 | 51.64633 | 0.15562 | 7263 ft | 247 kts | 260° |
| 2026-05-08 00:08 | 51.64194 | 0.12931 | 7130 ft | 240 kts | 253° |
| 2026-05-08 00:08 | 51.63713 | 0.10354 | 7079 ft | 240 kts | 253° |
| 2026-05-08 00:08 | 51.63239 | 0.07772 | 7082 ft | 240 kts | 253° |
| 2026-05-08 00:08 | 51.62770 | 0.05213 | 7084 ft | 240 kts | 253° |
| 2026-05-08 00:09 | 51.62295 | 0.02639 | 7089 ft | 240 kts | 253° |
| 2026-05-08 00:09 | 51.61816 | 0.00050 | 7082 ft | 240 kts | 253° |
| 2026-05-08 00:09 | 51.61341 | -0.02526 | 7084 ft | 240 kts | 253° |
| 2026-05-08 00:09 | 51.60864 | -0.05109 | 7087 ft | 240 kts | 253° |
| 2026-05-08 00:10 | 51.60386 | -0.07681 | 7084 ft | 240 kts | 253° |
| 2026-05-08 00:10 | 51.59912 | -0.10221 | 7087 ft | 234 kts | 253° |
| 2026-05-08 00:10 | 51.59464 | -0.12640 | 7081 ft | 217 kts | 253° |
| 2026-05-08 00:10 | 51.59044 | -0.14897 | 7078 ft | 207 kts | 253° |
| 2026-05-08 00:11 | 51.58634 | -0.17102 | 7081 ft | 205 kts | 253° |
| 2026-05-08 00:11 | 51.58228 | -0.19274 | 7096 ft | 204 kts | 253° |
| 2026-05-08 00:11 | 51.57817 | -0.21463 | 7087 ft | 204 kts | 253° |
| 2026-05-08 00:11 | 51.57550 | -0.23710 | 7080 ft | 204 kts | 271° |
| 2026-05-08 00:12 | 51.57671 | -0.25959 | 7087 ft | 205 kts | 276° |
| 2026-05-08 00:12 | 51.57857 | -0.28234 | 7083 ft | 205 kts | 277° |
| 2026-05-08 00:12 | 51.58050 | -0.30505 | 7084 ft | 205 kts | 277° |
| 2026-05-08 00:12 | 51.58245 | -0.32784 | 7084 ft | 205 kts | 277° |
| 2026-05-08 00:13 | 51.58437 | -0.35035 | 7084 ft | 205 kts | 277° |
| 2026-05-08 00:13 | 51.58631 | -0.37303 | 7086 ft | 205 kts | 277° |
| 2026-05-08 00:13 | 51.58825 | -0.39580 | 7086 ft | 205 kts | 277° |
| 2026-05-08 00:13 | 51.59020 | -0.41853 | 7089 ft | 205 kts | 277° |
| 2026-05-08 00:14 | 51.59215 | -0.44134 | 7084 ft | 205 kts | 277° |
| 2026-05-08 00:14 | 51.59407 | -0.46385 | 7085 ft | 205 kts | 277° |
| 2026-05-08 00:14 | 51.59602 | -0.48662 | 7085 ft | 205 kts | 277° |
| 2026-05-08 00:14 | 51.59797 | -0.50938 | 6960 ft | 206 kts | 277° |
| 2026-05-08 00:15 | 51.59991 | -0.53253 | 6591 ft | 206 kts | 277° |
| 2026-05-08 00:15 | 51.60171 | -0.55470 | 6406 ft | 196 kts | 277° |
| 2026-05-08 00:15 | 51.60339 | -0.57608 | 6200 ft | 188 kts | 276° |
| 2026-05-08 00:15 | 51.60494 | -0.59653 | 5911 ft | 186 kts | 276° |
| 2026-05-08 00:16 | 51.60651 | -0.61725 | 5611 ft | 187 kts | 277° |
| 2026-05-08 00:16 | 51.60864 | -0.63785 | 5311 ft | 186 kts | 279° |
| 2026-05-08 00:16 | 51.61122 | -0.65829 | 5016 ft | 186 kts | 281° |
| 2026-05-08 00:16 | 51.61383 | -0.67866 | 4746 ft | 185 kts | 279° |
| 2026-05-08 00:17 | 51.61622 | -0.69873 | 4550 ft | 179 kts | 278° |
| 2026-05-08 00:17 | 51.61838 | -0.71901 | 4500 ft | 198 kts | 278° |
| 2026-05-08 00:17 | 51.62062 | -0.74271 | 4499 ft | 226 kts | 277° |
| 2026-05-08 00:17 | 51.62293 | -0.76806 | 4494 ft | 228 kts | 277° |
| 2026-05-08 00:18 | 51.62368 | -0.79345 | 4483 ft | 226 kts | 257° |
| 2026-05-08 00:18 | 51.61670 | -0.81516 | 4481 ft | 222 kts | 223° |
| 2026-05-08 00:18 | 51.60383 | -0.82830 | 4490 ft | 219 kts | 203° |
| 2026-05-08 00:18 | 51.58985 | -0.83826 | 4495 ft | 219 kts | 201° |
| 2026-05-08 00:19 | 51.57582 | -0.84787 | 4482 ft | 219 kts | 201° |
| 2026-05-08 00:19 | 51.56170 | -0.85587 | 4487 ft | 217 kts | 186° |
| 2026-05-08 00:19 | 51.54686 | -0.85307 | 4491 ft | 215 kts | 163° |
| 2026-05-08 00:19 | 51.53244 | -0.84600 | 4489 ft | 215 kts | 161° |
| 2026-05-08 00:20 | 51.51815 | -0.83859 | 4503 ft | 215 kts | 161° |
| 2026-05-08 00:20 | 51.50403 | -0.83119 | 4506 ft | 214 kts | 160° |
| 2026-05-08 00:20 | 51.49093 | -0.81976 | 4380 ft | 215 kts | 142° |
| 2026-05-08 00:20 | 51.48127 | -0.80184 | 4008 ft | 212 kts | 120° |
| 2026-05-08 00:21 | 51.47640 | -0.77956 | 3742 ft | 212 kts | 100° |
| 2026-05-08 00:21 | 51.47601 | -0.75614 | 3468 ft | 212 kts | 91° |
| 2026-05-08 00:21 | 51.47619 | -0.73247 | 3186 ft | 211 kts | 91° |
| 2026-05-08 00:21 | 51.47635 | -0.70886 | 2888 ft | 211 kts | 91° |
| 2026-05-08 00:22 | 51.47649 | -0.68533 | 2606 ft | 210 kts | 91° |
| 2026-05-08 00:22 | 51.47663 | -0.66191 | 2318 ft | 209 kts | 91° |
| 2026-05-08 00:22 | 51.47676 | -0.63907 | 2055 ft | 202 kts | 91° |
| 2026-05-08 00:22 | 51.47688 | -0.61680 | 1761 ft | 196 kts | 91° |
| 2026-05-08 00:23 | 51.47699 | -0.59548 | 1495 ft | 184 kts | 91° |
| 2026-05-08 00:23 | 51.47709 | -0.57558 | 1244 ft | 172 kts | 91° |
| 2026-05-08 00:23 | 51.47717 | -0.55695 | 1009 ft | 163 kts | 90° |
| 2026-05-08 00:23 | 51.47725 | -0.53940 | 788 ft | 156 kts | 90° |
| 2026-05-08 00:24 | 51.47733 | -0.52221 | 582 ft | 152 kts | 90° |
| 2026-05-08 00:24 | 51.47740 | -0.50522 | 361 ft | 152 kts | 90° |
| 2026-05-08 00:24 | 51.47744 | -0.48868 | 169 ft | 148 kts | 90° |
| 2026-05-08 00:24 | 51.47747 | -0.47248 | 88 ft | 134 kts | 90° |
| 2026-05-08 00:25 | 51.47755 | -0.46120 | 87 ft | 71 kts | 89° |
| 2026-05-08 00:25 | 51.47758 | -0.45607 | 87 ft | 23 kts | 93° |
| 2026-05-08 00:25 | 51.47690 | -0.45467 | 86 ft | 14 kts | 179° |
| 2026-05-08 00:25 | 51.47646 | -0.45468 | 85 ft | 0 kts | 181° |
| 2026-05-08 00:26 | 51.47645 | -0.45468 | 85 ft | 0 kts | 180° |
| 2026-05-08 00:26 | 51.47644 | -0.45468 | 85 ft | 0 kts | 180° |
| 2026-05-08 00:26 | 51.47643 | -0.45468 | 85 ft | 0 kts | 179° |
| 2026-05-08 00:27 | 51.47634 | -0.45468 | 85 ft | 3 kts | 179° |
| 2026-05-08 00:27 | 51.47596 | -0.45467 | 86 ft | 7 kts | 179° |
| 2026-05-08 00:27 | 51.47533 | -0.45451 | 87 ft | 11 kts | 152° |
| 2026-05-08 00:27 | 51.47505 | -0.45304 | 89 ft | 17 kts | 89° |
| 2026-05-08 00:28 | 51.47508 | -0.45091 | 92 ft | 21 kts | 88° |
| 2026-05-08 00:28 | 51.47507 | -0.44846 | 89 ft | 22 kts | 88° |
| 2026-05-08 00:28 | 51.47512 | -0.44653 | 90 ft | 13 kts | 91° |
| 2026-05-08 00:28 | 51.47435 | -0.44559 | 87 ft | 19 kts | 175° |
| 2026-05-08 00:29 | 51.47288 | -0.44556 | 85 ft | 21 kts | 179° |
| 2026-05-08 00:29 | 51.47177 | -0.44557 | 85 ft | 12 kts | 180° |
| 2026-05-08 00:29 | 51.47105 | -0.44564 | 84 ft | 5 kts | 206° |
| 2026-05-08 00:29 | 51.47055 | -0.44611 | 89 ft | 9 kts | 210° |
| 2026-05-08 00:30 | 51.47038 | -0.44665 | 85 ft | 2 kts | 268° |
| 2026-05-08 00:30 | 51.47038 | -0.44670 | 85 ft | 0 kts | 268° |
| 2026-05-08 00:30 | 51.47038 | -0.44671 | 85 ft | 0 kts | 268° |